Date,TemperatureHighF,TemperatureAvgF,TemperatureLowF,DewpointHighF,DewpointAvgF,DewpointLowF,HumidityHigh,HumidityAvg,HumidityLow,PressureMaxIn,PressureMinIn,WindSpeedMaxMPH,WindSpeedAvgMPH,GustSpeedMaxMPH,PrecipitationSumIn
2014-1-1,26.1,19.9,18.1,24.8,17.5,15.1,98,90,80,30.35,30.14,7,2,14,0.00
2014-1-2,19.6,15.9,9.0,18.2,14.6,6.9,97,94,84,30.14,29.84,21,8,31,0.00
2014-1-3,21.9,10.1,1.4,12.7,3.3,-4.3,92,73,53,30.38,30.07,14,5,21,0.00
2014-1-4,36.9,24.1,11.7,15.3,8.4,3.1,71,53,32,30.26,30.00,14,7,21,0.00
2014-1-5,43.9,34.7,30.2,43.6,23.8,-5.9,99,66,48,30.09,29.28,15,3,15,0.00
2014-1-6,43.9,10.4,-11.7,43.6,6.3,-20.3,99,83,64,30.10,29.26,32,15,32,0.00
2014-1-7,5.5,-3.2,-11.9,-6.8,-13.8,-20.8,69,59,49,30.34,30.09,21,10,21,0.00
2014-1-8,23.4,12.3,0.1,14.9,4.6,-7.1,82,71,49,30.46,30.34,14,5,14,0.00
2014-1-9,29.7,20.9,4.5,27.4,14.3,1.3,98,76,51,30.58,30.33,11,4,11,0.00
2014-1-10,44.2,36.1,27.9,44.0,35.7,27.6,99,99,94,30.34,29.79,20,7,20,0.00
2014-1-11,50.2,44.1,34.2,49.7,42.9,31.4,99,96,83,29.79,29.29,33,11,33,0.00
2014-1-12,41.7,34.7,32.4,32.0,29.7,27.8,95,82,61,29.98,29.65,24,10,24,0.00
2014-1-13,48.9,42.4,35.6,43.8,35.4,29.9,99,77,57,29.87,29.66,18,9,18,0.00
2014-1-14,45.3,38.6,34.2,43.6,32.2,24.6,99,79,48,29.81,29.67,15,5,15,0.00
2014-1-15,37.4,28.2,24.4,32.5,22.2,15.6,90,79,48,30.01,29.75,22,7,22,0.00
2014-1-16,32.2,26.8,21.4,24.9,17.3,12.4,96,68,50,29.97,29.75,21,8,21,0.00
2014-1-17,43.2,32.3,18.0,32.8,25.2,15.2,99,76,52,29.91,29.72,22,7,22,0.00
2014-1-18,26.2,17.5,11.3,15.6,8.5,2.4,92,68,48,29.98,29.83,14,6,14,0.00
2014-1-19,35.8,25.7,16.3,22.5,18.4,13.2,94,75,52,29.83,29.59,21,8,21,0.00
2014-1-20,36.1,26.2,15.6,31.0,20.6,11.1,99,80,64,29.99,29.54,23,3,23,0.00
2014-1-21,15.6,9.8,1.0,11.7,1.9,-7.4,85,70,55,30.11,29.95,24,8,24,0.00
2014-1-22,18.5,6.7,-4.4,5.7,-1.0,-9.8,84,71,45,30.10,29.98,10,2,10,0.00
2014-1-23,15.3,9.8,4.1,9.4,6.1,0.9,88,84,71,30.41,29.97,18,6,18,0.00
2014-1-24,17.1,8.2,-2.7,2.1,-1.2,-6.5,88,67,43,30.41,29.67,24,9,26,0.00
2014-1-25,29.5,17.9,9.7,23.4,14.1,1.9,98,85,50,29.72,29.27,32,12,32,0.00
2014-1-26,28.6,13.1,-1.3,22.0,6.5,-7.8,84,75,56,29.77,29.42,18,8,19,0.00
2014-1-27,35.1,14.0,1.9,27.9,7.4,-4.3,99,76,45,30.25,29.33,40,15,40,0.00
2014-1-28,14.5,1.8,-9.6,-3.0,-9.4,-14.4,81,60,38,30.37,30.21,17,6,21,0.00
2014-1-29,20.5,7.2,-5.3,-2.7,-7.2,-14.7,74,53,32,30.25,30.12,27,8,27,0.00
2014-1-30,31.5,19.1,5.7,7.9,0.3,-3.4,68,46,27,30.25,29.83,24,9,24,0.00
2014-1-31,44.1,32.7,29.3,27.8,18.4,6.2,92,58,34,30.15,29.91,14,4,14,0.00
2014-2-1,41.7,35.3,29.3,41.5,32.7,25.8,99,91,71,30.15,29.82,18,4,18,0.00
2014-2-2,37.2,27.4,20.8,37.0,26.7,19.6,99,97,92,30.23,29.89,15,2,17,0.00
2014-2-3,25.5,19.2,9.7,21.0,14.3,7.2,96,81,67,30.37,30.18,11,4,11,0.00
2014-2-4,29.7,16.5,2.5,21.7,11.9,-0.4,99,83,53,30.44,30.08,14,3,14,0.00
2014-2-5,24.1,21.6,14.2,23.9,20.9,10.0,99,97,82,30.27,29.68,30,12,30,0.00
2014-2-6,27.1,13.9,1.0,16.3,7.8,-1.8,90,77,55,30.35,30.24,22,5,22,0.00
2014-2-7,22.1,8.0,-1.7,0.7,-4.2,-7.0,80,59,34,30.35,30.29,18,6,18,0.00
2014-2-8,26.1,9.7,-4.0,8.6,0.0,-9.6,85,66,39,30.33,30.17,10,2,10,0.00
2014-2-9,28.2,16.5,10.4,20.8,13.2,6.8,92,87,71,30.17,29.94,20,4,20,0.00
2014-2-10,23.0,14.5,3.9,16.3,10.1,0.1,95,83,61,30.32,30.12,13,4,13,0.00
2014-2-11,24.8,9.1,-7.8,12.9,4.3,-11.6,89,81,51,30.47,30.32,11,2,11,0.00
2014-2-12,37.6,10.7,-15.5,10.4,-3.2,-20.4,83,57,23,30.45,30.09,12,2,12,0.00
2014-2-13,39.6,17.7,5.5,13.9,6.7,-2.2,83,63,29,30.09,29.55,11,2,11,0.00
2014-2-14,28.0,23.2,9.7,26.7,19.4,5.6,99,85,73,29.75,29.44,21,6,21,0.00
2014-2-15,23.9,17.2,2.7,20.2,12.9,-0.7,95,83,67,30.07,29.73,18,6,18,0.00
2014-2-16,35.2,13.4,3.2,20.7,9.0,0.5,91,83,49,30.33,29.97,13,3,13,0.00
2014-2-17,31.3,14.5,-12.3,26.9,2.0,-16.8,99,63,27,30.40,29.67,30,8,30,0.00
2014-2-18,40.1,31.3,22.8,30.9,25.0,20.0,99,79,48,30.03,29.67,30,11,30,0.08
2014-2-19,55.4,39.3,29.7,32.9,28.8,24.3,99,68,39,30.09,29.63,23,7,23,0.00
2014-2-20,52.7,36.3,25.2,45.2,33.4,24.9,99,90,58,30.10,29.56,18,6,19,0.34
2014-2-21,52.2,41.8,36.7,50.6,30.8,14.2,99,68,40,29.86,29.49,26,11,26,0.11
2014-2-22,45.1,39.3,33.1,32.7,21.8,6.3,86,51,20,30.00,29.80,30,11,30,0.04
2014-2-23,40.3,33.0,24.8,32.3,23.5,12.5,90,69,40,30.04,29.97,21,8,21,0.00
2014-2-24,25.7,22.9,20.3,19.5,15.3,11.8,92,72,61,30.13,30.01,27,13,27,0.00
2014-2-25,44.2,19.8,0.0,36.5,12.9,3.4,94,75,42,30.12,28.73,21,7,21,0.00
2014-2-26,19.6,13.2,7.7,13.0,1.9,-6.6,91,61,42,30.09,29.68,26,9,26,0.00
2014-2-27,16.9,9.7,-6.0,13.7,0.2,-14.1,92,65,43,30.18,29.54,40,11,40,0.06
2014-2-28,25.5,8.0,-14.6,-0.2,-8.7,-20.4,77,49,25,30.34,30.12,16,3,16,0.00
2014-3-1,50.7,27.5,16.0,25.8,11.6,-1.6,94,54,20,30.20,30.03,19,6,19,0.00
2014-3-2,18.1,12.5,5.5,17.1,5.9,-4.5,96,76,44,30.27,30.18,18,9,18,0.00
2014-3-3,13.5,4.2,-7.4,0.6,-4.9,-13.1,85,66,49,30.42,30.25,19,6,19,0.00
2014-3-4,29.8,10.2,-8.5,5.4,-3.9,-13.9,81,56,18,30.39,30.18,11,3,11,0.00
2014-3-5,28.0,18.2,12.2,14.0,6.8,1.3,79,61,45,30.48,30.20,21,6,21,0.00
2014-3-6,39.2,24.1,10.8,13.8,5.3,-3.8,75,47,24,30.47,30.16,16,6,17,0.00
2014-3-7,56.3,36.6,23.2,30.2,21.0,13.2,84,55,30,30.17,29.91,12,4,12,0.00
2014-3-8,35.6,29.2,21.2,33.2,26.6,17.2,99,90,75,30.12,29.89,17,6,17,0.01
2014-3-9,39.4,27.9,13.3,24.5,19.3,11.7,96,72,45,30.20,29.87,16,5,16,0.01
2014-3-10,57.9,46.4,35.2,40.4,32.1,23.9,72,58,44,29.87,29.57,24,7,24,0.00
2014-3-11,60.4,45.6,36.7,43.4,39.2,35.6,99,79,47,29.72,29.64,20,4,20,0.01
2014-3-12,39.9,28.4,8.8,39.5,27.8,1.7,99,97,72,29.88,29.31,46,16,46,0.25
2014-3-13,24.4,15.7,6.1,10.9,4.6,-2.0,79,62,45,30.12,29.87,20,8,20,0.00
2014-3-14,59.7,42.8,23.4,40.5,24.5,8.4,76,50,32,30.05,29.61,30,11,30,0.04
2014-3-15,47.5,36.1,26.6,35.0,28.4,18.7,85,73,61,30.21,29.70,29,11,29,0.00
2014-3-16,26.8,19.1,14.2,19.3,10.1,6.5,79,68,52,30.35,30.16,20,11,20,0.00
2014-3-17,36.0,22.3,10.2,18.2,9.8,0.1,76,60,23,30.15,29.91,17,6,17,0.00
2014-3-18,53.6,36.9,20.5,33.4,25.2,15.3,89,65,42,30.06,29.95,19,5,19,0.00
2014-3-19,49.3,43.6,37.6,47.4,37.9,25.2,99,81,59,29.95,29.67,30,11,30,0.15
2014-3-20,37.8,35.1,32.5,35.7,28.9,23.3,99,79,61,30.03,29.81,32,14,32,0.01
2014-3-21,50.9,37.9,24.6,32.0,25.8,21.4,93,64,38,30.11,29.79,14,4,14,0.00
2014-3-22,43.5,37.1,33.8,40.4,31.4,27.1,99,80,71,30.12,29.64,29,9,29,0.02
2014-3-23,33.3,21.4,17.2,30.4,14.5,8.8,93,74,59,30.33,30.11,20,10,20,0.00
2014-3-24,32.0,23.0,16.0,20.6,13.1,9.2,84,66,48,30.33,30.08,18,5,18,0.00
2014-3-25,39.0,25.4,13.6,25.7,16.4,7.8,99,72,29,30.08,29.89,21,6,21,0.00
2014-3-26,28.2,19.3,7.9,22.2,9.3,1.7,99,66,48,30.32,30.04,21,8,21,0.00
2014-3-27,46.4,33.7,17.8,34.4,17.9,9.6,73,54,33,30.28,29.81,22,8,22,0.09
2014-3-28,55.8,45.9,31.1,50.2,38.7,29.5,99,77,45,30.18,29.70,31,10,31,0.21
2014-3-29,37.8,33.5,30.9,34.0,32.3,30.7,99,95,85,30.20,29.92,34,11,34,0.09
2014-3-30,42.4,33.6,28.2,31.0,27.5,21.9,99,80,51,30.13,29.97,25,12,25,0.00
2014-3-31,60.1,41.5,24.6,31.7,22.0,13.6,80,50,21,30.22,30.08,14,3,14,0.00
2014-4-1,74.5,52.0,41.7,43.4,31.2,23.3,66,46,22,30.09,29.75,30,11,30,0.00
2014-4-2,54.7,42.9,34.7,34.2,30.1,26.0,88,62,38,30.19,30.01,15,4,15,0.00
2014-4-3,47.7,38.6,34.5,39.3,31.5,26.3,99,77,47,30.18,29.85,13,6,13,0.32
2014-4-4,65.5,47.9,37.0,62.0,46.8,33.5,99,96,78,29.81,29.42,32,9,40,0.20
2014-4-5,44.6,36.5,30.0,33.7,29.0,24.0,99,75,53,30.19,29.77,32,12,32,0.00
2014-4-6,59.4,40.8,26.6,32.0,25.3,19.4,94,59,24,30.23,30.03,17,3,17,0.00
2014-4-7,55.2,42.8,31.8,46.5,34.1,24.5,99,74,40,30.03,29.38,18,5,18,0.44
2014-4-8,55.2,44.0,35.4,42.2,36.4,28.8,99,78,40,29.76,29.30,19,8,19,0.19
2014-4-9,51.8,41.9,32.7,37.2,31.1,25.4,99,68,39,30.03,29.75,16,4,16,0.00
2014-4-10,71.1,55.0,38.1,52.3,34.0,25.7,99,50,21,30.00,29.74,29,10,29,0.19
2014-4-11,65.7,52.6,44.2,51.9,45.9,36.7,99,81,44,30.07,29.93,15,3,15,0.14
2014-4-12,74.3,59.3,42.3,48.5,40.1,27.7,99,58,21,30.16,29.90,18,6,18,0.00
2014-4-13,79.9,69.4,59.7,55.6,47.7,36.3,61,46,35,29.91,29.74,21,7,21,0.00
2014-4-14,72.9,62.2,41.0,62.4,52.1,40.6,99,73,45,29.74,29.61,29,8,29,0.34
2014-4-15,40.8,30.8,26.8,40.6,28.9,20.1,99,93,72,30.22,29.65,20,3,23,0.11
2014-4-16,45.3,33.0,18.3,26.9,19.5,12.6,94,61,29,30.50,30.22,12,3,12,0.00
2014-4-17,67.3,49.0,28.6,31.1,24.6,17.7,80,41,21,30.42,30.29,22,8,22,0.00
2014-4-18,67.8,52.8,44.6,44.6,35.4,28.1,95,54,29,30.34,30.23,21,7,21,0.00
2014-4-19,54.0,44.7,33.6,43.2,31.3,16.0,98,63,24,30.43,30.29,22,8,22,0.00
2014-4-20,77.2,54.4,30.4,39.6,26.0,11.9,99,45,10,30.35,30.13,17,4,17,0.00
2014-4-21,80.8,63.8,49.1,41.8,33.3,25.4,52,34,15,30.13,29.76,16,5,16,0.00
2014-4-22,66.2,51.2,39.0,57.1,45.9,37.0,99,84,40,29.87,29.66,27,9,27,0.08
2014-4-23,48.2,40.1,30.0,37.4,29.6,15.6,96,70,29,30.13,29.86,27,13,27,0.00
2014-4-24,55.4,42.7,24.8,35.8,18.8,7.7,92,45,17,30.19,29.93,17,5,17,0.00
2014-4-25,61.7,50.0,40.6,54.6,35.6,18.7,99,65,26,29.93,29.62,24,9,24,0.21
2014-4-26,61.0,45.3,38.5,47.9,39.4,33.6,99,82,52,30.09,29.78,24,9,24,0.01
2014-4-27,53.8,44.8,33.1,37.1,33.1,28.2,95,66,42,30.17,30.07,21,7,21,0.00
2014-4-28,61.0,51.1,42.8,45.0,36.4,31.3,73,58,35,30.11,29.83,19,7,19,0.01
2014-4-29,66.2,54.8,51.1,55.1,50.5,45.0,99,86,66,29.96,29.70,36,15,36,0.41
2014-4-30,54.7,51.8,48.6,54.4,51.0,45.2,99,97,79,29.97,29.75,23,9,23,0.41
2014-5-1,61.3,53.6,46.9,55.3,43.9,35.2,99,72,41,29.85,29.77,17,7,18,0.07
2014-5-2,58.1,51.0,46.8,45.0,42.1,38.4,84,72,57,29.86,29.76,19,6,19,0.00
2014-5-3,64.6,52.4,45.7,50.4,43.5,37.8,99,73,50,29.84,29.67,34,8,34,0.07
2014-5-4,58.1,48.0,36.7,43.7,38.3,34.4,99,70,48,30.09,29.82,22,7,22,0.01
2014-5-5,61.5,45.4,32.4,45.6,37.6,31.9,99,77,40,30.10,29.96,13,3,13,0.00
2014-5-6,62.6,48.5,32.0,49.6,36.2,30.8,99,67,34,30.10,29.98,21,5,21,0.00
2014-5-7,70.3,54.9,40.3,48.4,41.3,33.1,88,62,40,30.16,29.97,15,4,15,0.00
2014-5-8,86.7,72.4,57.0,62.7,56.0,44.9,79,58,37,30.07,29.95,14,5,22,0.00
2014-5-9,85.8,73.0,63.9,68.3,59.5,53.4,99,65,36,30.00,29.80,27,6,27,0.13
2014-5-10,72.5,61.5,50.2,59.1,48.8,29.0,99,67,23,30.00,29.85,20,6,27,0.04
2014-5-11,81.3,64.6,44.4,54.0,44.2,34.5,97,53,20,30.13,30.00,10,2,10,0.00
2014-5-12,83.3,69.3,63.9,71.2,63.8,53.8,99,84,51,30.09,29.99,16,4,16,0.17
2014-5-13,90.9,74.9,63.3,70.5,64.8,59.1,99,76,37,30.08,29.95,21,6,21,0.05
2014-5-14,84.0,65.9,57.9,70.6,64.1,57.7,99,95,56,30.12,29.95,21,4,21,0.50
2014-5-15,69.3,62.9,50.4,67.2,61.4,49.3,99,95,82,29.99,29.79,24,7,24,0.24
2014-5-16,54.9,47.8,39.7,49.5,40.7,32.6,98,77,53,30.04,29.94,14,6,17,0.00
2014-5-17,59.9,45.7,36.5,47.1,40.4,35.3,99,84,51,30.22,30.02,16,3,16,0.06
2014-5-18,67.1,52.0,35.8,47.8,36.5,28.6,99,63,26,30.30,30.22,19,3,19,0.01
2014-5-19,70.7,56.4,39.0,44.1,37.5,28.3,89,55,21,30.33,30.20,14,3,14,0.00
2014-5-20,71.8,58.4,46.4,61.0,48.7,42.3,95,72,44,30.22,29.93,17,3,17,0.02
2014-5-21,81.3,68.5,60.4,67.7,64.1,60.2,99,87,60,29.93,29.84,17,4,17,0.71
2014-5-22,68.2,59.8,49.6,62.9,55.4,49.4,99,86,61,30.03,29.83,20,4,20,0.13
2014-5-23,57.6,52.1,45.9,53.0,49.0,45.6,99,90,70,30.16,30.01,15,4,15,0.00
2014-5-24,76.3,59.3,41.2,59.6,48.0,40.9,99,71,34,30.21,30.14,13,3,13,0.00
2014-5-25,80.8,64.8,45.0,59.3,48.9,40.9,99,64,27,30.22,30.11,12,2,12,0.00
2014-5-26,84.6,70.5,53.4,59.5,55.0,50.6,95,62,35,30.13,29.97,16,4,16,0.00
2014-5-27,82.9,71.8,63.3,70.5,65.3,58.7,99,81,57,29.98,29.87,17,3,17,0.00
2014-5-28,78.4,68.1,59.4,68.2,62.2,53.0,99,83,59,30.09,29.90,15,5,15,0.00
2014-5-29,70.3,60.1,52.9,57.4,54.3,52.0,99,83,56,30.17,30.07,22,6,22,0.00
2014-5-30,81.3,64.4,50.0,64.5,53.1,45.9,99,72,31,30.22,30.14,12,3,12,0.00
2014-5-31,78.8,64.9,49.1,60.9,47.5,27.4,99,60,20,30.27,30.19,17,4,17,0.00
2014-6-1,89.4,71.9,53.4,61.4,52.3,43.3,86,53,31,30.25,30.06,11,3,11,0.00
2014-6-2,87.3,75.2,64.6,74.3,66.5,59.5,88,75,54,30.10,29.94,14,4,14,0.05
2014-6-3,87.1,75.3,60.4,73.8,63.6,50.6,99,71,36,29.94,29.84,24,6,24,0.09
2014-6-4,75.2,61.9,51.3,65.1,57.2,51.0,99,86,48,29.96,29.82,11,2,11,0.09
2014-6-5,70.7,60.3,49.5,60.0,51.0,42.0,99,75,37,29.98,29.81,18,5,18,0.01
2014-6-6,76.5,62.0,43.7,60.0,49.8,43.4,99,69,37,30.07,29.96,11,2,11,0.01
2014-6-7,85.1,65.8,46.9,57.3,49.4,43.4,99,63,24,30.13,29.95,12,2,12,0.00
2014-6-8,70.3,61.0,53.4,66.1,58.3,49.9,99,91,73,29.97,29.81,18,4,18,0.43
2014-6-9,75.6,65.5,55.9,63.9,60.1,55.7,99,84,62,30.00,29.93,16,4,16,0.00
2014-6-10,81.7,67.4,55.8,69.7,62.6,55.5,99,86,58,29.99,29.92,11,2,11,0.00
2014-6-11,85.1,72.0,63.5,70.6,67.1,63.2,99,86,58,29.93,29.79,11,4,11,0.02
2014-6-12,83.1,71.5,64.9,73.8,67.4,63.4,99,88,65,29.85,29.80,11,4,11,0.02
2014-6-13,74.3,66.2,57.9,70.7,60.4,47.4,99,83,51,30.01,29.78,22,4,22,0.00
2014-6-14,68.9,60.2,48.9,52.7,48.8,44.5,99,67,50,30.16,30.01,18,5,18,0.00
2014-6-15,87.8,65.8,43.7,60.6,50.0,37.0,99,65,18,30.21,30.05,9,2,9,0.00
2014-6-16,90.5,75.0,57.4,69.6,62.4,54.6,99,68,37,30.11,30.04,16,4,16,0.00
2014-6-17,93.9,79.9,66.7,75.0,68.9,63.5,99,73,40,30.09,29.84,21,5,21,0.00
2014-6-18,92.7,74.2,64.6,75.2,67.8,63.4,99,83,47,30.11,29.94,28,3,28,0.70
2014-6-19,77.0,69.4,56.3,71.6,63.4,52.5,99,83,57,30.15,30.00,18,5,18,0.24
2014-6-20,82.9,65.5,49.3,59.4,51.1,40.0,99,64,25,30.14,29.95,11,3,11,0.01
2014-6-21,79.9,68.3,54.1,63.2,54.7,33.8,97,65,23,29.99,29.92,14,3,14,0.00
2014-6-22,82.6,67.6,52.3,64.8,56.2,49.6,99,71,40,30.00,29.95,13,3,13,0.00
2014-6-23,90.1,71.1,55.4,73.2,64.7,53.9,99,83,48,30.01,29.93,15,3,15,0.21
2014-6-24,91.8,76.0,68.2,74.6,70.5,67.9,99,85,55,29.98,29.88,17,4,17,0.63
2014-6-25,78.6,70.1,63.1,74.2,68.5,62.7,99,95,74,29.98,29.90,11,3,11,0.56
2014-6-26,81.0,70.4,62.4,70.9,65.7,62.2,99,87,60,30.09,29.98,11,4,11,0.00
2014-6-27,87.3,72.2,57.6,72.5,65.0,57.3,99,80,49,30.16,30.08,11,2,11,0.01
2014-6-28,96.6,78.2,61.0,72.4,66.1,59.8,99,72,33,30.21,30.11,11,2,11,0.00
2014-6-29,91.2,77.7,69.3,75.7,72.2,66.7,99,85,56,30.15,30.00,22,4,22,0.13
2014-6-30,92.7,79.8,0.0,77.1,71.9,69.5,99,77,51,30.03,29.81,11,3,11,0.01
2014-7-1,92.7,80.8,72.9,76.6,72.6,64.7,99,79,46,29.87,29.65,17,5,17,0.00
2014-7-2,91.2,76.8,68.4,75.1,68.5,62.1,99,79,42,29.95,29.80,12,3,12,0.11
2014-7-3,79.5,68.2,59.9,70.3,64.4,58.1,99,89,61,30.13,29.93,21,5,21,0.00
2014-7-4,75.0,64.5,52.5,63.3,54.0,47.2,99,72,42,30.30,30.13,14,4,14,0.00
2014-7-5,80.4,65.6,48.4,63.8,55.1,48.1,99,73,41,30.33,30.16,16,2,16,0.01
2014-7-6,84.2,70.7,54.7,62.3,58.5,54.4,99,69,41,30.16,29.86,11,3,11,0.00
2014-7-7,87.3,75.2,65.3,73.6,67.6,61.9,99,78,59,29.87,29.72,16,5,16,0.19
2014-7-8,82.9,72.3,66.6,74.8,68.3,61.5,99,88,61,29.80,29.61,27,6,27,0.72
2014-7-9,82.2,68.9,58.1,71.5,63.7,57.8,99,85,65,30.05,29.80,16,3,16,0.01
2014-7-10,81.3,66.8,52.9,64.1,57.0,52.6,99,74,43,30.19,30.05,14,4,14,0.01
2014-7-11,81.7,68.8,52.9,67.3,58.4,52.6,99,73,44,30.25,30.17,14,3,14,0.00
2014-7-12,92.8,75.5,57.9,70.6,63.8,57.7,99,71,36,30.22,29.99,8,2,8,0.00
2014-7-13,85.3,75.1,65.7,76.4,69.3,65.2,99,84,57,30.00,29.86,23,5,23,0.02
2014-7-14,86.9,72.7,64.2,76.0,67.7,59.3,99,86,45,29.92,29.79,12,2,12,0.00
2014-7-15,79.2,70.2,59.9,72.1,60.8,51.3,99,74,46,29.88,29.73,22,6,22,0.00
2014-7-16,71.2,63.5,54.7,63.2,56.6,52.3,99,80,57,30.03,29.87,18,4,18,0.00
2014-7-17,80.2,64.9,52.5,66.3,54.0,44.9,99,73,34,30.19,30.02,10,2,13,0.00
2014-7-18,83.1,66.5,50.0,60.5,54.9,49.3,99,71,33,30.28,30.18,10,2,10,0.00
2014-7-19,73.2,66.0,62.6,73.0,65.2,58.9,99,97,82,30.19,30.07,7,1,7,0.04
2014-7-20,84.0,71.1,62.6,83.8,70.9,62.3,99,99,99,30.12,30.07,2,1,2,0.00
2014-7-21,87.3,72.1,59.2,87.0,71.8,58.9,99,99,99,30.19,30.09,2,0,2,0.00
2014-7-22,95.2,77.6,60.6,95.0,77.3,60.4,99,99,99,30.17,29.99,2,0,2,0.00
2014-7-23,78.6,69.9,64.8,78.4,69.6,64.5,99,99,99,30.05,29.93,2,1,2,0.05
2014-7-24,73.2,65.6,52.9,73.0,65.3,52.6,99,99,99,30.10,30.02,3,1,3,0.00
2014-7-25,79.9,64.6,48.9,79.6,64.4,48.7,99,99,99,30.14,30.01,2,0,2,0.01
2014-7-26,89.1,72.7,58.8,72.6,64.0,58.4,99,79,39,30.03,29.76,9,2,9,0.01
2014-7-27,90.9,72.9,60.4,77.3,67.9,60.0,99,87,45,29.76,29.55,23,3,23,1.46
2014-7-28,67.3,62.0,57.7,65.6,58.3,47.4,99,88,68,29.92,29.58,22,7,27,0.37
2014-7-29,73.6,63.6,57.4,56.4,52.9,47.7,87,69,45,29.98,29.89,14,4,14,0.00
2014-7-30,77.7,65.8,55.0,65.9,59.3,54.8,99,82,52,29.98,29.92,14,3,14,0.11
2014-7-31,83.5,68.3,57.9,69.2,57.6,46.7,99,74,32,30.05,29.94,12,2,12,0.04
2014-8-1,90.0,72.9,58.8,69.2,63.3,57.5,99,75,38,30.10,30.04,9,2,9,0.00
2014-8-2,86.5,70.4,60.6,70.3,64.8,60.4,99,85,51,30.14,30.03,17,2,17,0.18
2014-8-3,80.1,66.7,61.2,73.1,64.1,60.9,99,92,67,30.09,30.04,11,1,11,0.00
2014-8-4,87.8,71.6,57.2,69.9,62.3,56.9,99,77,39,30.09,30.01,9,2,9,0.01
2014-8-5,84.6,68.0,60.6,71.6,65.2,60.4,99,92,56,30.04,29.98,22,2,24,0.12
2014-8-6,79.0,68.3,58.6,74.6,62.0,57.2,99,82,54,30.01,29.96,14,3,14,0.00
2014-8-7,80.1,66.8,53.6,68.2,58.0,53.3,99,77,43,30.09,30.01,12,3,12,0.01
2014-8-8,80.8,65.9,52.9,67.7,57.8,52.6,99,79,44,30.14,30.07,14,2,14,0.00
2014-8-9,83.1,67.7,53.4,66.0,58.7,53.2,99,76,43,30.10,30.04,15,4,15,0.00
2014-8-10,89.8,72.8,59.7,68.7,63.5,57.1,99,77,35,30.08,29.98,11,3,11,0.00
2014-8-11,79.0,69.5,65.5,70.5,66.5,63.9,99,91,66,30.00,29.73,21,7,21,0.15
2014-8-12,86.2,71.3,64.6,74.6,67.8,64.3,99,89,58,29.75,29.67,14,3,14,0.76
2014-8-13,74.3,64.7,53.8,64.7,58.6,50.1,99,83,46,29.93,29.75,19,5,19,0.27
2014-8-14,71.1,59.3,50.5,62.1,51.5,46.1,99,78,45,29.95,29.88,18,4,18,0.00
2014-8-15,73.9,60.4,47.1,62.7,50.6,44.6,99,74,37,30.00,29.94,14,3,14,0.00
2014-8-16,86.0,65.0,48.2,64.9,52.9,45.4,99,72,27,29.97,29.85,14,2,14,0.14
2014-8-17,77.7,68.4,55.9,67.4,60.6,54.7,99,79,50,29.98,29.85,11,3,11,0.20
2014-8-18,81.0,65.7,53.6,67.2,58.3,53.3,99,80,47,29.95,29.83,15,3,15,0.00
2014-8-19,90.1,71.2,53.2,69.2,61.3,53.0,99,76,40,29.84,29.75,13,1,27,0.47
2014-8-20,88.9,71.3,64.6,76.2,68.0,64.3,99,91,55,29.93,29.79,8,1,13,0.44
2014-8-21,88.9,73.9,64.2,80.5,68.4,64.0,99,85,52,29.98,29.91,6,1,10,0.08
2014-8-22,86.9,74.1,66.7,78.0,70.9,66.3,99,90,63,29.97,29.90,9,1,11,0.45
2014-8-23,78.8,70.0,64.4,71.9,67.7,64.1,99,93,72,30.03,29.94,10,3,16,0.00
2014-8-24,85.1,71.9,61.5,69.6,65.5,61.3,99,83,51,30.10,30.02,5,1,10,0.00
2014-8-25,88.5,73.2,61.0,68.9,64.9,60.7,99,78,48,30.12,30.04,6,2,11,0.00
2014-8-26,92.7,75.8,64.2,74.4,67.5,62.0,99,78,49,30.11,29.98,5,1,8,0.00
2014-8-27,80.8,71.1,60.8,72.4,65.2,54.8,99,83,60,30.06,30.01,8,2,14,0.00
2014-8-28,72.9,62.0,51.6,57.1,53.4,48.2,99,76,46,30.13,30.04,13,2,19,0.00
2014-8-29,83.1,65.1,47.1,64.0,53.4,46.7,99,71,35,30.15,30.03,7,1,12,0.00
2014-8-30,93.0,75.8,60.6,72.8,64.2,54.3,98,69,41,30.05,29.90,5,1,11,0.01
2014-8-31,85.3,74.7,69.1,74.0,70.4,67.6,99,87,61,29.97,29.92,4,1,8,0.01
2014-9-1,88.0,77.2,69.8,75.0,71.3,69.5,99,84,56,29.95,29.79,6,2,12,0.00
2014-9-2,83.1,72.9,64.0,74.9,69.3,63.8,99,89,64,29.93,29.82,8,1,16,0.02
2014-9-3,86.7,70.8,59.2,74.8,64.2,58.9,99,82,47,30.05,29.93,6,1,10,0.01
2014-9-4,94.1,75.9,61.2,71.5,63.2,58.2,99,71,32,30.09,30.00,4,1,8,0.00
2014-9-5,93.2,78.5,66.0,73.6,69.4,65.5,99,76,49,30.07,29.86,12,2,24,0.30
2014-9-6,71.1,65.4,52.7,67.7,61.4,47.5,99,88,63,30.09,29.89,10,2,15,0.38
2014-9-7,76.3,61.4,49.1,64.1,52.7,47.4,99,77,42,30.19,30.08,8,1,12,0.00
2014-9-8,80.6,63.7,45.7,60.2,52.7,45.2,99,72,36,30.19,30.05,8,2,14,0.00
2014-9-9,84.4,69.9,61.2,68.1,61.9,57.3,99,77,51,30.10,29.98,6,2,13,0.00
2014-9-10,83.1,71.3,62.1,73.9,67.8,61.6,99,90,65,29.99,29.65,7,2,15,1.02
2014-9-11,73.9,62.5,54.5,73.7,61.1,54.1,99,95,84,30.13,29.63,10,3,20,0.13
2014-9-12,63.3,56.3,51.6,56.0,52.1,47.1,99,86,65,30.21,30.12,7,2,11,0.00
2014-9-13,63.5,55.2,48.7,58.3,51.3,48.0,99,87,63,30.28,30.02,10,2,21,0.06
2014-9-14,69.1,54.9,45.0,55.7,48.4,43.0,99,82,42,30.31,30.18,7,1,10,0.00
2014-9-15,72.5,56.4,43.2,59.8,51.0,42.7,99,85,46,30.19,30.01,5,1,10,0.35
2014-9-16,69.6,57.4,48.4,58.9,51.4,47.3,99,83,51,30.10,30.01,8,1,13,0.06
2014-9-17,77.5,57.7,46.2,58.4,49.6,45.6,99,79,36,30.04,29.95,6,1,13,0.01
2014-9-18,70.2,56.0,44.6,61.3,51.2,44.3,99,85,59,30.15,29.97,10,2,14,0.00
2014-9-19,76.5,57.7,44.4,59.5,49.8,44.2,99,79,39,30.23,30.04,5,1,8,0.00
2014-9-20,82.9,68.2,53.6,64.9,61.1,53.3,99,80,50,30.06,29.80,6,2,14,0.00
2014-9-21,78.4,66.2,54.1,70.4,60.9,51.3,99,84,57,29.86,29.62,15,5,26,0.15
2014-9-22,56.3,51.9,44.6,51.5,46.7,42.5,99,83,64,30.24,29.86,11,3,22,0.06
2014-9-23,75.9,55.7,40.8,55.9,48.2,40.6,99,80,39,30.35,30.23,8,1,12,0.01
2014-9-24,77.7,61.8,47.5,57.1,51.4,47.2,99,73,37,30.42,30.33,7,1,12,0.01
2014-9-25,77.4,62.0,47.8,59.5,54.0,47.6,99,78,44,30.35,30.23,9,2,13,0.00
2014-9-26,80.8,61.5,46.6,65.2,54.1,46.3,99,80,39,30.28,30.21,8,1,12,0.00
2014-9-27,81.0,61.9,47.1,61.5,54.4,46.9,99,80,40,30.27,30.16,8,1,11,0.00
2014-9-28,83.5,62.2,48.6,65.2,56.6,48.3,99,85,45,30.17,30.01,5,0,8,0.00
2014-9-29,78.1,63.3,51.1,65.9,56.4,50.8,99,81,51,30.01,29.87,6,1,11,0.01
2014-9-30,71.8,57.7,51.6,67.9,56.9,51.4,99,97,78,29.95,29.82,6,1,11,0.31
2014-10-1,75.4,58.8,48.6,65.4,56.3,48.3,99,92,64,30.02,29.94,8,1,11,0.01
2014-10-2,78.3,62.9,48.7,64.2,55.5,48.5,99,80,44,30.07,29.89,5,1,11,0.00
2014-10-3,74.8,63.9,54.5,67.7,59.5,54.2,99,87,61,29.89,29.55,12,3,19,0.60
2014-10-4,54.7,48.0,41.0,54.2,38.7,26.9,99,73,42,29.71,29.57,11,3,19,0.08
2014-10-5,56.5,46.8,39.9,39.3,36.8,32.9,92,70,45,29.78,29.66,9,3,18,0.00
2014-10-6,64.0,54.5,47.8,56.9,47.4,37.6,99,78,57,29.76,29.66,6,3,13,0.04
2014-10-7,62.2,55.2,48.9,56.1,52.3,48.7,99,91,72,29.83,29.67,5,2,9,0.14
2014-10-8,61.2,53.6,46.4,53.5,45.8,33.8,99,77,47,29.97,29.71,15,3,24,0.01
2014-10-9,61.7,49.3,38.5,46.9,39.9,35.7,99,72,43,30.05,29.93,11,2,21,0.00
2014-10-10,60.1,46.9,36.7,51.1,42.5,36.1,99,86,61,30.09,30.03,9,2,13,0.00
2014-10-11,56.7,47.0,35.1,46.3,38.4,34.8,99,74,48,30.19,30.05,12,3,17,0.00
2014-10-12,67.3,49.5,31.3,50.9,38.4,30.9,99,71,33,30.20,30.02,8,2,14,0.00
2014-10-13,74.7,64.0,55.4,64.9,58.9,51.1,99,84,65,30.03,29.91,8,3,16,0.15
2014-10-14,80.6,69.3,57.9,64.2,60.1,54.1,99,74,43,29.91,29.64,11,5,21,0.17
2014-10-15,70.9,59.1,52.7,60.3,56.3,52.4,99,92,60,29.82,29.73,8,1,13,0.28
2014-10-16,68.9,57.1,51.6,67.2,54.5,51.4,99,91,68,29.73,29.65,5,1,9,0.02
2014-10-17,66.2,58.9,51.8,54.8,52.6,49.9,99,81,62,29.68,29.50,11,3,18,0.06
2014-10-18,55.8,48.4,43.9,54.8,45.6,35.4,99,90,69,30.00,29.57,14,6,23,0.43
2014-10-19,54.0,45.3,38.3,39.8,36.7,33.5,99,73,48,30.12,29.98,11,3,19,0.01
2014-10-20,61.3,49.3,40.1,51.2,43.0,38.0,99,80,58,29.98,29.78,7,3,14,0.11
2014-10-21,48.2,48.2,48.2,47.9,47.9,47.9,99,99,99,29.95,29.95,11,10,15,0.47
2014-10-26,49.1,42.5,38.5,36.3,34.8,32.7,83,74,61,29.91,29.89,2,0,3,0.00
2014-10-27,72.5,54.2,34.0,55.0,37.6,28.4,96,60,22,29.97,29.76,10,3,17,0.00
2014-10-28,75.6,64.7,52.9,59.2,55.3,44.6,99,73,51,29.89,29.73,15,4,23,0.04
2014-10-29,56.8,48.5,43.0,44.8,41.8,35.6,99,79,48,30.00,29.88,13,3,20,0.24
2014-10-30,53.8,44.2,36.5,48.1,40.3,36.1,99,87,58,30.07,29.98,8,1,13,0.17
2014-10-31,50.0,43.9,36.0,43.1,40.1,35.7,99,88,63,29.99,29.81,5,1,9,0.04
2014-11-1,42.1,38.9,36.1,41.8,34.9,26.4,99,86,62,30.19,29.88,17,8,25,0.20
2014-11-2,44.8,37.1,31.5,32.6,28.2,25.6,87,71,54,30.32,30.18,14,5,20,0.00
2014-11-3,61.2,46.0,30.2,28.0,23.6,11.1,81,47,16,30.25,30.06,8,3,12,0.00
2014-11-4,68.4,55.6,46.6,54.1,36.5,22.9,99,54,23,30.08,29.88,13,5,23,0.24
2014-11-5,59.4,48.5,39.4,49.2,37.5,29.3,98,69,34,30.11,29.98,14,4,27,0.00
2014-11-6,49.5,44.2,36.7,46.9,42.3,32.8,99,93,80,29.99,29.66,12,2,21,0.15
2014-11-7,44.8,38.9,32.5,44.5,32.7,26.4,99,78,69,29.99,29.78,18,6,26,0.06
2014-11-8,45.3,39.3,31.8,42.5,32.6,26.6,99,77,62,29.96,29.69,10,4,16,0.14
2014-11-9,51.6,44.2,37.9,40.6,34.4,29.8,99,71,45,29.91,29.81,9,3,14,0.01
2014-11-10,62.8,52.6,44.1,36.6,33.4,29.2,67,50,31,29.97,29.79,12,4,18,0.00
2014-11-11,69.6,57.4,44.8,56.6,41.8,33.9,99,58,39,29.81,29.67,14,6,24,0.04
2014-11-12,45.0,38.2,34.2,44.5,30.5,24.5,99,74,66,30.15,29.81,17,6,25,0.01
2014-11-13,34.3,31.2,27.3,32.4,28.4,24.7,99,90,69,30.11,30.04,5,1,10,0.02
2014-11-14,35.1,29.1,26.6,30.1,26.4,21.0,99,90,62,30.23,30.06,11,2,15,0.00
2014-11-15,42.3,29.9,20.7,31.3,21.9,15.2,99,75,36,30.32,30.18,7,1,11,0.11
2014-11-16,37.4,31.8,24.1,32.3,24.1,18.3,99,74,50,30.19,29.85,7,2,9,0.00
2014-11-17,39.4,29.7,17.4,39.1,27.0,8.1,99,90,66,29.85,29.53,14,3,24,0.04
2014-11-18,23.4,16.5,12.7,9.3,5.7,2.4,79,62,48,30.08,29.76,15,8,24,0.00
2014-11-19,33.6,21.4,10.2,27.1,14.5,4.2,93,75,53,30.10,29.73,14,6,27,0.00
2014-11-20,32.7,25.5,21.4,22.4,15.7,9.9,99,68,39,30.06,29.81,18,7,27,0.01
2014-11-21,27.5,22.0,14.7,18.2,11.7,7.7,79,64,51,30.42,30.06,14,4,24,0.00
2014-11-22,44.2,31.4,15.6,39.8,25.7,7.8,99,80,57,30.34,29.96,11,5,17,0.12
2014-11-23,56.7,49.0,41.5,51.4,40.7,33.8,99,74,55,30.00,29.33,16,5,24,0.17
2014-11-24,66.6,54.6,41.7,57.5,46.6,28.6,99,76,54,29.73,29.20,20,9,36,0.18
2014-11-25,41.5,36.8,32.5,30.2,27.3,24.4,84,68,59,30.16,29.73,12,5,107,0.00
2014-11-26,39.0,33.9,31.6,33.3,27.8,25.2,98,78,64,30.14,29.96,7,1,8,0.00
2014-11-27,34.3,31.6,27.9,34.1,29.0,21.9,99,91,73,30.17,29.95,13,3,20,0.01
2014-11-28,29.1,26.0,23.7,23.2,17.6,13.9,92,70,56,30.27,30.10,12,5,17,0.00
2014-11-29,47.8,37.7,25.9,37.0,26.8,20.9,86,66,50,30.10,29.78,13,6,21,0.00
2014-11-30,61.0,55.7,47.8,56.0,48.6,37.4,99,77,67,29.95,29.77,11,6,19,0.09
2014-12-1,49.1,33.7,26.8,48.8,28.9,17.0,99,83,61,30.53,29.94,14,6,23,0.04
2014-12-2,34.5,29.5,22.5,34.3,24.7,16.0,99,83,58,30.53,30.02,9,2,16,0.02
2014-12-3,35.6,34.5,34.2,35.2,32.6,31.2,99,93,88,30.04,29.99,12,4,20,0.00
2014-12-4,44.4,32.1,25.3,34.5,26.2,21.8,90,79,56,30.32,29.70,8,2,15,0.00
2014-12-5,39.4,35.3,26.8,38.6,32.1,23.8,99,88,75,29.93,29.71,9,2,14,0.07
2014-12-6,39.2,37.7,33.3,38.9,33.9,24.6,99,87,63,30.06,29.67,17,7,24,0.58
2014-12-7,38.1,32.4,28.4,27.3,22.2,15.9,77,66,42,30.20,30.02,12,4,18,0.00
2014-12-8,41.7,36.4,30.0,31.0,16.5,9.3,82,45,29,30.03,29.67,14,7,22,0.01
2014-12-9,44.6,38.0,34.7,38.0,34.4,31.0,99,87,68,29.68,29.61,13,4,18,0.05
2014-12-10,36.7,32.2,29.1,36.4,29.3,25.2,99,89,77,29.69,29.50,17,9,27,0.06
2014-12-11,37.0,32.6,29.5,28.5,23.9,13.6,92,72,41,29.56,29.45,17,10,27,0.00
2014-12-12,35.6,32.7,30.9,32.1,28.7,24.2,99,86,67,29.74,29.55,12,5,20,0.00
2014-12-13,41.7,33.8,30.2,41.5,33.3,30.0,99,98,91,29.73,29.54,11,4,17,0.00
2014-12-14,43.9,41.8,40.1,43.4,41.6,39.7,99,99,99,29.63,29.52,14,4,22,0.04
2014-12-15,52.3,44.5,40.1,52.1,43.6,39.5,99,97,88,29.64,29.42,11,2,15,0.01
2014-12-16,50.9,44.8,41.0,49.3,44.2,40.6,99,98,90,29.42,29.22,14,4,24,0.22
2014-12-17,43.2,34.0,29.5,42.7,31.6,23.7,99,91,77,29.65,29.40,17,8,28,0.08
2014-12-18,31.6,30.6,29.3,30.7,27.0,23.2,99,86,77,29.73,29.65,11,4,21,0.00
2014-12-19,34.2,30.2,27.9,29.5,23.9,20.4,95,77,64,29.84,29.67,11,4,15,0.00
2014-12-20,32.7,29.8,28.0,25.0,23.2,21.9,83,76,67,29.84,29.78,3,0,5,0.00
2014-12-21,33.4,30.6,28.8,27.3,24.9,21.9,90,79,70,29.86,29.75,4,1,8,0.00
2014-12-22,44.4,33.3,22.6,32.5,26.6,19.8,96,77,59,29.75,29.46,9,3,14,0.00
2014-12-23,51.3,45.1,36.7,49.8,42.9,31.4,99,92,81,29.46,29.33,10,4,17,0.00
2014-12-24,57.2,51.4,41.2,55.6,50.0,35.2,99,95,79,29.33,28.78,18,6,34,0.20
2014-12-25,41.7,39.0,34.7,37.1,33.1,28.9,99,79,68,29.71,29.07,18,6,27,0.04
2014-12-26,51.1,39.9,29.3,37.0,32.6,25.7,91,76,58,29.77,29.65,8,3,14,0.00
2014-12-27,57.7,46.1,37.0,47.2,36.1,26.0,99,71,32,29.72,29.50,11,4,19,0.01
2014-12-28,47.5,36.1,27.9,47.2,33.9,25.7,99,92,76,29.71,29.48,12,3,22,0.18
2014-12-29,32.2,29.5,25.0,28.6,22.8,15.1,98,76,64,29.90,29.71,9,3,13,0.00
2014-12-30,28.9,23.3,19.0,22.3,16.2,11.4,90,74,60,30.01,29.89,12,3,17,0.00
2014-12-31,25.5,20.8,17.6,15.8,8.0,1.6,88,58,37,29.96,29.66,15,6,22,0.00
2015-1-1,35.2,27.0,17.8,19.4,10.4,3.4,66,50,35,29.66,29.44,16,6,24,0.00
2015-1-2,33.3,29.1,23.2,24.2,20.5,18.3,88,70,63,29.91,29.62,14,3,19,0.00